Time;durP1;ratioP1;P1;durP2;ratioP2;P2;SDS_P1;SDS_P2;PMS_P1;PMS_P2;Temp;Humidity;BMP_temperature;BMP_pressure;BME280_temperature;BME280_humidity;BME280_pressure;Samples;Min_cycle;Max_cycle;Signal;HPM_P1;HPM_P2
2022/04/03 00:00:37;;;;;;;2.88;1.15;;;;;;;16.87;39.67;99612.91;4949438;29;20058;-91
2022/04/03 00:03:04;;;;;;;2.42;1.08;;;;;;;16.87;39.67;99618.19;4966382;29;20027;-91
2022/04/03 00:05:35;;;;;;;2.47;0.95;;;;;;;16.86;39.83;99611.19;4950959;29;20023;-91
2022/04/03 00:08:00;;;;;;;2.65;1.10;;;;;;;16.88;39.75;99617.25;4954241;29;20027;-91
2022/04/03 00:10:26;;;;;;;1.85;1.05;;;;;;;16.87;39.77;99612.91;4954733;29;20062;-91
2022/04/03 00:12:52;;;;;;;2.15;0.88;;;;;;;16.87;39.79;99607.66;4954737;29;20033;-91
2022/04/03 00:15:18;;;;;;;2.72;1.10;;;;;;;16.87;39.77;99610.28;4959486;29;20091;-91
2022/04/03 00:17:45;;;;;;;2.53;1.00;;;;;;;16.85;39.64;99608.63;4962133;29;20095;-91
2022/04/03 00:20:12;;;;;;;1.83;0.90;;;;;;;16.86;39.62;99608.53;4945113;29;20099;-91
2022/04/03 00:22:38;;;;;;;2.33;1.10;;;;;;;16.86;39.69;99608.53;4961312;29;20024;-91
2022/04/03 00:25:05;;;;;;;2.08;1.00;;;;;;;16.85;39.78;99601.56;4956627;29;20095;-91
2022/04/03 00:27:30;;;;;;;2.03;0.90;;;;;;;16.85;39.84;99604.19;4953247;29;20039;-91
2022/04/03 00:29:56;;;;;;;3.17;0.90;;;;;;;16.87;39.87;99602.38;4951194;29;20178;-91
2022/04/03 00:32:22;;;;;;;3.05;0.90;;;;;;;16.84;39.64;99596.34;4945167;29;20031;-92
2022/04/03 00:34:49;;;;;;;1.92;0.90;;;;;;;16.83;39.81;99600.78;4946431;29;20071;-90
2022/04/03 00:37:14;;;;;;;3.20;1.00;;;;;;;16.85;39.92;99598.91;4946557;29;20105;-90
2022/04/03 00:39:40;;;;;;;1.98;0.90;;;;;;;16.83;39.70;99590.22;4947475;29;20035;-90
2022/04/03 00:42:08;;;;;;;1.10;0.70;;;;;;;16.80;39.83;99595.63;4949852;29;20027;-91
2022/04/03 00:44:35;;;;;;;1.73;0.85;;;;;;;16.82;39.68;99587.66;4944901;29;20023;-92
2022/04/03 00:47:01;;;;;;;2.22;0.70;;;;;;;16.81;39.63;99586.81;4946309;29;20055;-91
2022/04/03 00:49:27;;;;;;;2.13;0.80;;;;;;;16.82;39.68;99588.53;4944919;29;20129;-90
2022/04/03 00:51:53;;;;;;;2.65;1.00;;;;;;;16.82;39.72;99580.63;4940679;29;20078;-90
2022/04/03 00:54:19;;;;;;;2.28;0.88;;;;;;;16.82;39.83;99585.88;4945932;29;20031;-91
2022/04/03 00:56:45;;;;;;;1.92;1.02;;;;;;;16.82;39.79;99591.16;4946638;29;20031;-90
2022/04/03 00:59:14;;;;;;;1.35;0.70;;;;;;;16.81;39.76;99589.44;4965189;29;20039;-91
2022/04/03 01:01:41;;;;;;;1.90;0.85;;;;;;;16.80;39.60;99582.44;4952237;29;20130;-92
2022/04/03 01:04:07;;;;;;;2.10;1.00;;;;;;;16.82;39.62;99582.38;4952332;29;20051;-91
2022/04/03 01:06:33;;;;;;;1.70;0.90;;;;;;;16.82;39.71;99583.25;4955792;29;20468;-90
2022/04/03 01:08:59;;;;;;;2.10;0.77;;;;;;;16.82;39.89;99587.66;4956306;29;20118;-92
2022/04/03 01:11:25;;;;;;;2.95;0.90;;;;;;;16.80;39.75;99576.34;4941454;29;20046;-92
2022/04/03 01:13:52;;;;;;;3.05;1.30;;;;;;;16.79;39.77;99572.81;4956803;29;20030;-92
2022/04/03 01:16:18;;;;;;;3.08;1.20;;;;;;;16.79;39.85;99567.56;4941763;29;20027;-91
2022/04/03 01:18:45;;;;;;;2.35;1.00;;;;;;;16.79;39.69;99562.28;4956997;29;20047;-91
2022/04/03 01:21:11;;;;;;;2.30;1.10;;;;;;;16.80;39.83;99563.16;4955949;29;20042;-92
2022/04/03 01:23:37;;;;;;;1.98;0.88;;;;;;;16.80;39.68;99560.53;4958656;29;20023;-91
2022/04/03 01:26:03;;;;;;;1.55;0.80;;;;;;;16.80;39.80;99561.34;4942378;29;20050;-92
2022/04/03 01:28:29;;;;;;;2.35;0.80;;;;;;;16.79;39.82;99562.28;4955679;29;20038;-92
2022/04/03 01:30:55;;;;;;;2.13;0.90;;;;;;;16.77;39.77;99546.53;4954916;29;20027;-92
2022/04/03 01:33:23;;;;;;;2.17;1.00;;;;;;;16.78;39.58;99557.94;4955920;29;20070;-92
2022/04/03 01:35:49;;;;;;;2.90;1.30;;;;;;;16.76;39.73;99559.78;4954399;29;20031;-92
2022/04/03 01:38:14;;;;;;;1.75;0.80;;;;;;;16.76;39.54;99562.44;4955384;29;20031;-92
2022/04/03 01:40:40;;;;;;;1.10;0.70;;;;;;;16.75;39.58;99555.41;4952981;29;20039;-92
2022/04/03 01:43:07;;;;;;;1.83;0.73;;;;;;;16.75;39.78;99555.41;4952136;29;20027;-92
2022/04/03 01:45:34;;;;;;;2.03;0.80;;;;;;;16.75;39.45;99555.41;4952827;29;20039;-91
2022/04/03 01:48:02;;;;;;;2.00;0.70;;;;;;;16.74;39.72;99553.72;4953979;29;20493;-93
2022/04/03 01:50:27;;;;;;;1.27;0.75;;;;;;;16.76;39.89;99546.63;4955531;29;20074;-92
2022/04/03 01:52:53;;;;;;;1.58;0.90;;;;;;;16.75;39.73;99545.75;4957782;29;20046;-91
2022/04/03 01:55:19;;;;;;;1.23;0.70;;;;;;;16.74;39.51;99545.81;4942069;29;20059;-92
2022/04/03 01:57:45;;;;;;;3.33;1.08;;;;;;;16.76;39.75;99546.63;4956530;29;20027;-92
2022/04/03 02:00:12;;;;;;;1.33;0.68;;;;;;;16.75;39.57;99548.38;4955331;29;20046;-93
2022/04/03 02:02:40;;;;;;;2.42;0.80;;;;;;;16.73;39.51;99541.47;4954615;29;20034;-92
2022/04/03 02:05:06;;;;;;;2.38;1.50;;;;;;;16.71;39.39;99556.50;4940659;29;20039;-91
2022/04/03 02:07:35;;;;;;;2.05;0.90;;;;;;;16.72;39.37;99551.16;4956493;29;20057;-91
2022/04/03 02:10:08;;;;;;;1.88;0.82;;;;;;;16.71;39.67;99551.22;4957288;29;20074;-91
2022/04/03 02:12:36;;;;;;;1.60;0.80;;;;;;;16.71;39.63;99551.22;4956826;29;20045;-91
2022/04/03 02:15:05;;;;;;;2.00;0.85;;;;;;;16.70;39.34;99552.16;4942782;29;20027;-91
2022/04/03 02:17:31;;;;;;;1.48;0.80;;;;;;;16.70;39.55;99557.41;4960185;29;20061;-91
2022/04/03 02:19:57;;;;;;;2.50;0.90;;;;;;;16.71;39.61;99543.31;4959484;29;20031;-91
2022/04/03 02:22:23;;;;;;;1.98;0.70;;;;;;;16.71;39.64;99548.59;4959802;29;20386;-92
2022/04/03 02:24:53;;;;;;;1.40;0.70;;;;;;;16.71;39.65;99535.41;4977740;29;20110;-91
2022/04/03 02:27:19;;;;;;;1.67;0.70;;;;;;;16.67;39.46;99531.19;4961862;29;20023;-91
2022/04/03 02:29:45;;;;;;;1.13;0.60;;;;;;;16.69;39.55;99545.13;4960762;29;20038;-91
2022/04/03 02:32:10;;;;;;;1.33;0.70;;;;;;;16.67;39.38;99533.81;4977748;29;20030;-91
2022/04/03 02:34:37;;;;;;;1.27;0.70;;;;;;;16.67;39.57;99536.44;4977563;29;20039;-92
2022/04/03 02:37:04;;;;;;;2.75;0.95;;;;;;;16.65;39.58;99539.13;4945082;29;20031;-92
2022/04/03 02:39:30;;;;;;;2.55;1.00;;;;;;;16.62;39.30;99534.84;4945717;29;20023;-92
2022/04/03 02:41:56;;;;;;;1.75;0.95;;;;;;;16.61;39.46;99530.50;4958681;29;20364;-91
2022/04/03 02:44:21;;;;;;;2.55;0.90;;;;;;;16.63;39.44;99541.84;4949690;29;20023;-90
2022/04/03 02:46:47;;;;;;;1.60;0.80;;;;;;;16.62;39.36;99540.13;4953322;29;20109;-90
2022/04/03 02:49:12;;;;;;;1.60;0.60;;;;;;;16.60;39.45;99536.69;4954931;29;20042;-89
2022/04/03 02:51:39;;;;;;;1.30;0.68;;;;;;;16.63;39.56;99538.34;4956166;29;20031;-90
2022/04/03 02:54:04;;;;;;;2.00;1.05;;;;;;;16.62;39.44;99534.00;4957570;29;20062;-90
2022/04/03 02:56:30;;;;;;;1.55;0.88;;;;;;;16.60;39.37;99541.09;4948984;29;20517;-89
2022/04/03 02:58:56;;;;;;;1.75;0.77;;;;;;;16.59;39.49;99537.63;4941853;29;20027;-89
2022/04/03 03:01:22;;;;;;;2.05;1.10;;;;;;;16.59;39.37;99532.38;4944453;29;20492;-90
2022/04/03 03:03:48;;;;;;;1.80;0.85;;;;;;;16.59;39.52;99537.63;4964603;29;20024;-90
2022/04/03 03:06:14;;;;;;;1.58;0.75;;;;;;;16.60;39.58;99533.19;4941607;29;20028;-89
2022/04/03 03:08:41;;;;;;;2.22;0.70;;;;;;;16.58;39.47;99533.28;4942838;29;20062;-90
2022/04/03 03:11:07;;;;;;;1.98;0.90;;;;;;;16.58;39.03;99538.56;4943768;29;20035;-89
2022/04/03 03:13:32;;;;;;;1.58;0.75;;;;;;;16.56;39.47;99537.75;4944066;29;20104;-90
2022/04/03 03:16:00;;;;;;;2.22;0.75;;;;;;;16.56;39.42;99534.28;4952800;29;20051;-89
2022/04/03 03:18:45;;;;;;;2.65;0.95;;;;;;;16.57;39.54;99530.72;4945304;29;20038;-89
2022/04/03 03:21:11;;;;;;;3.00;0.80;;;;;;;16.57;39.60;99536.81;4961139;29;20055;-89
2022/04/03 03:23:43;;;;;;;2.38;0.95;;;;;;;16.57;39.29;99535.97;4946907;29;20071;-89
2022/04/03 03:26:12;;;;;;;2.00;0.75;;;;;;;16.55;39.34;99532.56;4961714;29;20033;-90
2022/04/03 03:28:37;;;;;;;1.75;0.85;;;;;;;16.55;39.49;99533.41;4939937;29;20031;-89
2022/04/03 03:31:03;;;;;;;2.15;0.80;;;;;;;16.55;39.32;99536.03;4955802;29;20153;-90
2022/04/03 03:33:29;;;;;;;1.92;0.82;;;;;;;16.53;39.50;99529.97;4954360;29;20023;-90
2022/04/03 03:35:55;;;;;;;1.40;0.75;;;;;;;16.52;39.28;99538.81;4957286;29;20027;-89
2022/04/03 03:38:21;;;;;;;2.13;0.90;;;;;;;16.53;39.41;99539.66;4955203;29;20038;-90
2022/04/03 03:40:48;;;;;;;2.35;0.82;;;;;;;16.53;39.28;99534.38;4951531;29;20043;-89
2022/04/03 03:43:13;;;;;;;2.38;0.70;;;;;;;16.50;39.46;99536.22;4966171;29;20047;-90
2022/04/03 03:45:39;;;;;;;1.38;0.75;;;;;;;16.51;39.36;99537.06;4949843;29;20023;-91
2022/04/03 03:48:05;;;;;;;1.70;0.90;;;;;;;16.51;39.33;99537.06;4950926;29;20054;-90
2022/04/03 03:50:31;;;;;;;2.05;0.82;;;;;;;16.51;39.46;99537.06;4944748;29;20066;-89
2022/04/03 03:52:57;;;;;;;2.30;1.00;;;;;;;16.52;39.33;99536.19;4928089;29;20031;-90
2022/04/03 03:55:22;;;;;;;3.15;1.10;;;;;;;16.51;39.40;99540.56;4941478;29;20031;-89
2022/04/03 03:57:48;;;;;;;1.50;0.80;;;;;;;16.51;39.49;99537.06;4942643;29;20050;-89
2022/04/03 04:00:15;;;;;;;1.75;0.75;;;;;;;16.51;39.49;99537.06;4942241;29;20023;-89
2022/04/03 04:02:40;;;;;;;2.10;1.02;;;;;;;16.49;39.45;99541.56;4947656;29;20031;-90
2022/04/03 04:05:07;;;;;;;1.48;0.88;;;;;;;16.47;39.28;99546.03;4944649;29;20027;-90
2022/04/03 04:07:43;;;;;;;2.70;0.90;;;;;;;16.46;39.44;99549.59;4941406;29;20055;-90
2022/04/03 04:10:12;;;;;;;2.90;1.17;;;;;;;16.45;39.37;99559.25;4944125;29;20038;-90
2022/04/03 04:12:39;;;;;;;2.08;0.85;;;;;;;16.48;39.22;99558.28;4940691;29;20027;-89
2022/04/03 04:15:06;;;;;;;2.03;0.98;;;;;;;16.45;39.47;99558.41;4940340;29;20037;-90
2022/04/03 04:17:35;;;;;;;1.85;1.00;;;;;;;16.45;39.47;99554.00;4944176;29;20042;-91
2022/04/03 04:20:02;;;;;;;1.77;0.70;;;;;;;16.44;39.34;99559.31;4949457;29;20525;-91
2022/04/03 04:22:29;;;;;;;2.55;0.80;;;;;;;16.44;39.20;99568.09;4951318;29;20023;-91
2022/04/03 04:24:55;;;;;;;3.13;0.90;;;;;;;16.44;39.13;99564.59;4948180;29;20122;-91
2022/04/03 04:27:20;;;;;;;2.78;1.00;;;;;;;16.43;39.40;99560.25;4959139;29;20070;-88
2022/04/03 04:29:46;;;;;;;2.88;1.05;;;;;;;16.42;39.66;99556.75;4941226;29;20038;-89
2022/04/03 04:32:13;;;;;;;2.33;1.02;;;;;;;16.43;39.97;99560.25;4943848;29;20038;-89
2022/04/03 04:34:38;;;;;;;1.42;0.65;;;;;;;16.41;39.82;99567.34;4960903;28;20016;-89
2022/04/03 04:37:04;;;;;;;2.25;1.25;;;;;;;16.40;39.90;99565.63;4946805;29;20030;-89
2022/04/03 04:39:31;;;;;;;3.90;1.15;;;;;;;16.41;40.02;99568.19;4947126;29;20027;-90
2022/04/03 04:41:57;;;;;;;2.42;1.00;;;;;;;16.40;40.09;99568.25;4947590;29;20031;-89
2022/04/03 04:44:23;;;;;;;1.40;1.00;;;;;;;16.38;40.16;99558.63;4948060;29;20093;-90
2022/04/03 04:46:49;;;;;;;1.50;0.80;;;;;;;16.40;40.33;99562.97;4947609;29;20058;-89
2022/04/03 04:49:16;;;;;;;2.80;1.02;;;;;;;16.38;40.18;99563.06;4947320;29;20027;-89
2022/04/03 04:51:43;;;;;;;3.15;1.30;;;;;;;16.38;40.10;99561.28;4964858;29;20074;-89
2022/04/03 04:54:09;;;;;;;3.80;1.05;;;;;;;16.38;40.25;99561.28;4948276;29;20124;-88
2022/04/03 04:56:35;;;;;;;2.88;1.20;;;;;;;16.39;40.09;99562.16;4948726;29;20043;-88
2022/04/03 04:59:01;;;;;;;3.50;1.05;;;;;;;16.38;40.23;99569.19;4953674;29;20027;-89
2022/04/03 05:01:27;;;;;;;3.35;1.23;;;;;;;16.36;40.18;99571.03;4952883;29;20030;-90
2022/04/03 05:03:52;;;;;;;2.72;1.00;;;;;;;16.37;40.18;99578.00;4953015;29;20023;-88
2022/04/03 05:06:22;;;;;;;2.95;1.10;;;;;;;16.36;40.29;99576.28;4973572;29;20027;-90
2022/04/03 05:08:49;;;;;;;2.13;0.90;;;;;;;16.36;40.29;99580.69;4960205;29;20350;-90
2022/04/03 05:11:15;;;;;;;3.35;1.20;;;;;;;16.35;40.32;99574.59;4961394;29;20027;-90
2022/04/03 05:13:42;;;;;;;3.72;1.10;;;;;;;16.34;40.20;99572.00;4958621;29;20118;-90
2022/04/03 05:16:08;;;;;;;2.90;1.30;;;;;;;16.35;40.25;99574.59;4954687;29;20091;-89
2022/04/03 05:18:37;;;;;;;3.92;1.20;;;;;;;16.34;40.53;99578.13;4955652;29;20058;-89
2022/04/03 05:21:04;;;;;;;2.80;1.20;;;;;;;16.33;40.34;99581.66;4955743;29;20034;-90
2022/04/03 05:23:31;;;;;;;2.53;1.15;;;;;;;16.32;40.21;99579.97;4952223;29;20034;-90
2022/04/03 05:25:57;;;;;;;3.80;1.42;;;;;;;16.36;40.48;99591.22;4956607;29;20023;-90
2022/04/03 05:28:23;;;;;;;2.58;1.05;;;;;;;16.34;40.31;99586.03;4953257;29;20027;-89
2022/04/03 05:30:49;;;;;;;2.28;1.15;;;;;;;16.33;40.36;99589.56;4952047;29;20023;-89
2022/04/03 05:33:15;;;;;;;3.40;1.45;;;;;;;16.34;40.56;99587.81;4950180;29;20027;-89
2022/04/03 05:35:42;;;;;;;2.75;1.35;;;;;;;16.33;40.40;99584.28;4950055;29;20094;-90
2022/04/03 05:38:08;;;;;;;2.30;1.00;;;;;;;16.34;40.48;99587.81;4947915;29;20114;-89
2022/04/03 05:40:33;;;;;;;2.88;1.20;;;;;;;16.33;40.60;99589.56;4949973;29;20062;-90
2022/04/03 05:42:59;;;;;;;2.85;1.35;;;;;;;16.33;40.64;99596.63;4949915;29;20023;-89
2022/04/03 05:45:25;;;;;;;2.53;1.10;;;;;;;16.31;40.66;99587.91;4949074;29;20027;-89
2022/04/03 05:47:52;;;;;;;2.90;1.00;;;;;;;16.31;40.50;99594.03;4947379;29;20062;-88
2022/04/03 05:50:19;;;;;;;2.88;1.10;;;;;;;16.32;40.43;99595.75;4962514;29;20031;-89
2022/04/03 05:52:49;;;;;;;3.13;1.65;;;;;;;16.34;40.37;99598.34;4945238;29;20023;-90
2022/04/03 05:55:17;;;;;;;3.75;1.70;;;;;;;16.33;40.53;99597.47;4945986;29;20362;-89
2022/04/03 05:57:43;;;;;;;4.10;1.67;;;;;;;16.32;40.65;99601.03;4947844;29;20023;-89
2022/04/03 06:00:13;;;;;;;4.03;1.40;;;;;;;16.32;40.56;99601.03;4947158;29;20054;-89
2022/04/03 06:02:45;;;;;;;5.13;1.73;;;;;;;16.32;40.52;99601.03;4947202;29;20114;-89
2022/04/03 06:05:11;;;;;;;2.75;1.30;;;;;;;16.33;40.63;99592.19;4947134;29;20059;-89
2022/04/03 06:07:37;;;;;;;3.55;1.42;;;;;;;16.33;40.60;99602.72;4944907;29;20027;-89
2022/04/03 06:10:03;;;;;;;3.00;1.35;;;;;;;16.33;40.77;99602.72;4943418;29;20548;-89
2022/04/03 06:12:29;;;;;;;3.70;1.50;;;;;;;16.34;40.27;99604.47;4943105;29;20031;-90
2022/04/03 06:14:54;;;;;;;3.08;1.60;;;;;;;16.33;40.61;99597.47;4943284;29;20370;-89
2022/04/03 06:17:20;;;;;;;3.85;1.95;;;;;;;16.34;40.73;99607.09;4943581;29;20027;-90
2022/04/03 06:19:45;;;;;;;3.53;1.55;;;;;;;16.34;40.61;99603.59;4942974;29;20027;-88
2022/04/03 06:22:11;;;;;;;3.15;1.63;;;;;;;16.33;40.67;99602.72;4942783;29;20066;-89
2022/04/03 06:24:36;;;;;;;3.97;1.88;;;;;;;16.34;40.59;99609.75;4943234;29;20054;-89
2022/04/03 06:27:02;;;;;;;4.32;1.73;;;;;;;16.34;40.63;99616.78;4943370;29;20035;-90
2022/04/03 06:29:27;;;;;;;5.55;2.17;;;;;;;16.33;40.69;99608.00;4944795;29;20062;-90
2022/04/03 06:31:53;;;;;;;4.60;1.80;;;;;;;16.34;40.53;99609.75;4947739;29;20136;-89
2022/04/03 06:34:19;;;;;;;5.38;2.28;;;;;;;16.32;40.58;99614.19;4947781;29;20035;-88
2022/04/03 06:36:44;;;;;;;5.55;2.10;;;;;;;16.33;40.57;99623.78;4946369;29;20031;-89
2022/04/03 06:39:10;;;;;;;4.72;2.28;;;;;;;16.34;40.87;99615.00;4945011;29;20054;-89
2022/04/03 06:41:37;;;;;;;4.38;2.03;;;;;;;16.34;40.69;99625.53;4944628;29;20031;-89
2022/04/03 06:44:03;;;;;;;4.53;1.98;;;;;;;16.33;40.83;99629.06;4943576;29;20095;-89
2022/04/03 06:46:29;;;;;;;4.40;2.10;;;;;;;16.34;40.61;99635.19;4946207;29;20405;-88
2022/04/03 06:48:55;;;;;;;4.50;2.20;;;;;;;16.33;40.65;99629.06;4959385;29;20059;-89
2022/04/03 06:51:21;;;;;;;4.72;2.53;;;;;;;16.34;40.60;99630.81;4942100;29;20055;-89
2022/04/03 06:53:47;;;;;;;5.32;2.08;;;;;;;16.36;40.70;99646.53;4964827;29;20467;-90
2022/04/03 06:56:14;;;;;;;4.15;2.22;;;;;;;16.35;40.87;99643.06;4970640;29;20085;-89
2022/04/03 06:58:39;;;;;;;4.93;2.20;;;;;;;16.38;40.67;99640.28;4941964;29;20078;-89
2022/04/03 07:01:05;;;;;;;5.03;2.42;;;;;;;16.39;40.79;99643.78;4942854;29;20464;-90
2022/04/03 07:03:32;;;;;;;5.18;2.53;;;;;;;16.38;40.67;99642.91;4943743;29;20038;-89
2022/04/03 07:05:58;;;;;;;5.90;2.70;;;;;;;16.41;40.59;99646.38;4945365;29;20045;-91
2022/04/03 07:08:24;;;;;;;4.97;2.35;;;;;;;16.40;40.54;99644.63;4943492;29;20397;-90
2022/04/03 07:10:50;;;;;;;5.32;2.63;;;;;;;16.40;40.66;99645.50;4943905;29;20082;-89
2022/04/03 07:13:16;;;;;;;5.28;2.95;;;;;;;16.42;40.72;99643.66;4945989;29;20027;-89
2022/04/03 07:15:43;;;;;;;6.60;2.72;;;;;;;16.43;40.62;99639.25;4945996;29;20070;-89
2022/04/03 07:18:09;;;;;;;4.80;2.38;;;;;;;16.45;40.85;99647.94;4945951;29;20042;-89
2022/04/03 07:20:34;;;;;;;5.22;2.33;;;;;;;16.43;40.53;99644.53;4944156;29;20035;-89
2022/04/03 07:23:00;;;;;;;5.47;2.55;;;;;;;16.47;40.94;99648.75;4943719;29;20174;-89
2022/04/03 07:25:25;;;;;;;7.32;3.03;;;;;;;16.45;40.65;99647.94;4943569;29;20051;-90
2022/04/03 07:27:51;;;;;;;5.57;3.08;;;;;;;16.48;40.59;99651.31;4944093;29;20122;-89
2022/04/03 07:30:17;;;;;;;5.50;2.83;;;;;;;16.48;40.78;99647.84;4943534;29;20027;-90
2022/04/03 07:32:43;;;;;;;5.05;2.80;;;;;;;16.48;40.62;99646.03;4943428;29;20031;-89
2022/04/03 07:35:09;;;;;;;6.78;2.83;;;;;;;16.49;40.68;99650.41;4945558;29;20031;-89
2022/04/03 07:37:37;;;;;;;6.57;2.58;;;;;;;16.50;40.62;99651.25;4965854;29;20050;-90
2022/04/03 07:40:04;;;;;;;6.38;3.05;;;;;;;16.50;40.81;99656.53;4948816;29;20070;-88
2022/04/03 07:42:30;;;;;;;5.35;2.88;;;;;;;16.51;40.79;99647.72;4968102;29;20106;-90
2022/04/03 07:44:55;;;;;;;5.70;3.03;;;;;;;16.51;40.71;99658.25;4947091;29;20031;-89
2022/04/03 07:47:21;;;;;;;7.18;3.15;;;;;;;16.52;40.60;99659.97;4947228;29;20061;-89
2022/04/03 07:49:47;;;;;;;7.03;2.80;;;;;;;16.54;40.64;99658.13;4944871;29;20035;-89
2022/04/03 07:52:12;;;;;;;6.43;3.15;;;;;;;16.55;40.87;99659.84;4948582;29;20493;-90
2022/04/03 07:54:38;;;;;;;6.80;2.85;;;;;;;16.55;41.00;99667.75;4948535;29;20023;-90
2022/04/03 07:57:06;;;;;;;6.50;2.50;;;;;;;16.55;40.92;99659.00;4942651;29;20118;-89
2022/04/03 07:59:32;;;;;;;6.38;3.15;;;;;;;16.55;40.96;99659.84;4941093;29;20030;-89
2022/04/03 08:02:00;;;;;;;6.18;2.75;;;;;;;16.56;40.86;99661.56;4942425;29;20055;-90
2022/04/03 08:04:25;;;;;;;5.45;2.45;;;;;;;16.59;40.91;99661.44;4941562;29;20038;-89
2022/04/03 08:06:51;;;;;;;8.10;3.78;;;;;;;16.59;40.84;99672.00;4941160;29;20026;-89
2022/04/03 08:09:17;;;;;;;6.22;3.17;;;;;;;16.57;41.13;99663.28;4944429;28;20035;-90
2022/04/03 08:11:43;;;;;;;5.47;2.85;;;;;;;16.60;40.91;99675.47;4942041;29;20109;-90
2022/04/03 08:14:09;;;;;;;5.78;2.45;;;;;;;16.59;41.02;99672.00;4942009;29;20110;-90
2022/04/03 08:16:35;;;;;;;5.22;2.53;;;;;;;16.60;40.89;99668.44;4941064;29;20130;-89
2022/04/03 08:19:03;;;;;;;7.65;2.78;;;;;;;16.63;40.95;99672.72;4941864;29;20477;-90
2022/04/03 08:21:30;;;;;;;5.75;2.50;;;;;;;16.62;40.68;99671.84;4941466;29;20093;-89
2022/04/03 08:23:56;;;;;;;4.95;2.65;;;;;;;16.63;40.85;99670.97;4959035;29;20103;-90
2022/04/03 08:26:25;;;;;;;5.28;2.55;;;;;;;16.65;40.78;99681.41;4941337;29;20097;-90
2022/04/03 08:28:53;;;;;;;4.95;2.42;;;;;;;16.67;40.63;99681.38;4942206;29;20118;-90
2022/04/03 08:31:20;;;;;;;5.25;2.40;;;;;;;16.68;40.86;99675.16;4942215;29;20102;-90
2022/04/03 08:33:47;;;;;;;5.72;2.35;;;;;;;16.70;40.82;99678.63;4942524;29;20070;-89
2022/04/03 08:36:21;;;;;;;5.10;2.60;;;;;;;16.70;40.97;99690.00;4958739;29;20023;-89
2022/04/03 08:38:47;;;;;;;5.68;2.38;;;;;;;16.69;40.63;99676.88;4941960;29;20062;-89
2022/04/03 08:41:13;;;;;;;5.63;2.75;;;;;;;16.71;40.67;99685.59;4942893;29;20366;-89
2022/04/03 08:43:42;;;;;;;4.85;2.22;;;;;;;16.73;40.88;99687.25;4940855;29;20019;-89
2022/04/03 08:46:08;;;;;;;5.82;2.92;;;;;;;16.76;40.72;99683.66;4940162;29;20062;-89
2022/04/03 08:48:34;;;;;;;5.15;2.70;;;;;;;16.74;40.66;99682.81;4940682;29;20429;-89
2022/04/03 08:51:05;;;;;;;5.68;2.80;;;;;;;16.78;40.82;99689.72;4943184;29;20031;-90
2022/04/03 08:53:32;;;;;;;5.85;2.72;;;;;;;16.80;40.70;99692.28;4962058;29;20027;-90
2022/04/03 08:55:59;;;;;;;6.22;3.03;;;;;;;16.82;40.76;99687.81;4946283;29;20417;-89
2022/04/03 08:58:26;;;;;;;5.45;2.65;;;;;;;16.83;40.55;99694.78;4952200;29;20035;-91
2022/04/03 09:00:52;;;;;;;5.53;2.55;;;;;;;16.83;40.72;99679.84;4955436;29;20027;-92
2022/04/03 09:03:18;;;;;;;6.00;2.78;;;;;;;16.84;40.78;99681.56;4953670;29;20023;-90
2022/04/03 09:05:44;;;;;;;5.22;2.90;;;;;;;16.86;40.49;99689.41;4947795;29;20028;-90
2022/04/03 09:08:10;;;;;;;4.13;2.10;;;;;;;16.88;40.62;99688.44;4963877;29;20034;-89
2022/04/03 09:10:39;;;;;;;5.05;2.10;;;;;;;16.89;40.45;99678.72;4945086;29;20042;-90
2022/04/03 09:13:05;;;;;;;5.80;3.05;;;;;;;16.88;40.62;99688.44;4947114;29;20031;-90
2022/04/03 09:15:31;;;;;;;4.50;2.35;;;;;;;16.91;40.56;99688.28;4945717;29;20109;-89
2022/04/03 09:18:00;;;;;;;5.80;2.20;;;;;;;16.92;40.54;99684.72;4942808;29;20038;-88
2022/04/03 09:20:30;;;;;;;5.53;2.50;;;;;;;16.95;40.58;99688.19;4949322;29;20417;-89
2022/04/03 09:23:17;;;;;;;6.00;2.15;;;;;;;16.96;40.55;99687.25;4949095;29;20106;-90
2022/04/03 09:25:44;;;;;;;5.60;2.70;;;;;;;16.96;40.48;99685.47;4964334;29;20031;-90
2022/04/03 09:28:14;;;;;;;3.83;2.17;;;;;;;16.96;40.55;99679.34;4945847;29;20046;-90
2022/04/03 09:30:46;;;;;;;5.82;2.30;;;;;;;16.97;40.35;99686.31;4944582;29;20114;-89
2022/04/03 09:33:19;;;;;;;3.65;2.08;;;;;;;16.98;40.19;99688.03;4949236;29;20037;-90
2022/04/03 09:35:59;;;;;;;4.80;2.20;;;;;;;16.99;40.39;99685.34;4949986;29;20061;-88
2022/04/03 09:38:27;;;;;;;3.58;2.10;;;;;;;16.99;40.42;99680.06;4943790;29;20041;-90
2022/04/03 09:40:54;;;;;;;4.60;2.60;;;;;;;17.01;40.38;99680.03;4943930;29;20454;-89
2022/04/03 09:43:24;;;;;;;5.70;2.45;;;;;;;17.04;40.32;99674.63;4946496;29;20094;-89
2022/04/03 09:45:51;;;;;;;4.47;2.03;;;;;;;17.03;40.30;99678.19;4945384;29;20035;-90
2022/04/03 09:48:29;;;;;;;5.82;2.15;;;;;;;17.04;40.33;99672.88;4946406;29;20090;-88
2022/04/03 09:51:02;;;;;;;5.00;2.10;;;;;;;17.06;40.39;99680.72;4945980;29;20043;-86
2022/04/03 09:53:29;;;;;;;6.00;2.38;;;;;;;17.08;40.44;99680.63;4967075;29;20039;-89
2022/04/03 09:55:54;;;;;;;4.70;2.72;;;;;;;17.07;40.37;99671.88;4952939;29;20445;-90
2022/04/03 09:58:22;;;;;;;4.72;2.20;;;;;;;17.09;40.51;99670.03;4951110;29;20051;-91
2022/04/03 10:00:51;;;;;;;5.30;1.90;;;;;;;17.11;40.22;99668.22;4966786;29;20023;-87
2022/04/03 10:03:20;;;;;;;5.90;1.90;;;;;;;17.11;40.43;99673.50;4952382;29;20023;-88
2022/04/03 10:05:45;;;;;;;4.95;2.17;;;;;;;17.12;40.21;99677.84;4948559;29;20053;-87
2022/04/03 10:08:13;;;;;;;4.65;2.45;;;;;;;17.13;40.52;99678.66;4948986;29;20468;-88
2022/04/03 10:10:39;;;;;;;5.05;2.65;;;;;;;17.13;40.53;99682.19;4949647;29;20027;-87
2022/04/03 10:13:10;;;;;;;5.18;2.47;;;;;;;17.14;40.20;99668.06;4954425;29;20027;-91
2022/04/03 10:15:36;;;;;;;4.47;2.45;;;;;;;17.15;40.33;99672.41;4952024;29;20027;-90
2022/04/03 10:18:05;;;;;;;4.45;2.08;;;;;;;17.17;40.15;99672.34;4951503;29;20042;-91
2022/04/03 10:20:36;;;;;;;4.18;2.00;;;;;;;17.17;40.50;99678.50;4970365;29;20019;-91
2022/04/03 10:23:10;;;;;;;4.90;2.20;;;;;;;17.18;40.28;99668.78;4956757;29;20516;-90
2022/04/03 10:25:41;;;;;;;6.38;2.08;;;;;;;17.17;40.40;99670.59;4969052;29;20034;-89
2022/04/03 10:28:10;;;;;;;5.32;2.05;;;;;;;17.18;40.33;99659.13;4963971;29;20037;-89
2022/04/03 10:30:44;;;;;;;4.75;2.00;;;;;;;17.19;40.33;99659.97;4948579;29;20027;-89
2022/04/03 10:33:24;;;;;;;3.92;1.83;;;;;;;17.21;40.56;99657.25;4943378;29;20027;-89
2022/04/03 10:36:03;;;;;;;5.45;1.85;;;;;;;17.21;40.63;99652.00;4944882;29;20477;-87
2022/04/03 10:38:35;;;;;;;4.60;2.05;;;;;;;17.23;40.42;99660.72;4943102;29;20461;-89
2022/04/03 10:41:01;;;;;;;4.82;1.80;;;;;;;17.23;40.43;99658.06;4942444;29;20019;-88
2022/04/03 10:43:29;;;;;;;4.72;1.83;;;;;;;17.25;40.45;99659.69;4944085;29;20015;-88
2022/04/03 10:45:56;;;;;;;6.75;2.25;;;;;;;17.27;40.38;99657.00;4943305;29;20035;-88
2022/04/03 10:48:22;;;;;;;3.83;1.77;;;;;;;17.26;40.32;99650.88;4942657;29;20027;-89
2022/04/03 10:50:57;;;;;;;5.40;1.95;;;;;;;17.28;40.34;99653.44;4942264;29;20041;-88
2022/04/03 10:53:25;;;;;;;4.50;1.75;;;;;;;17.29;40.39;99657.81;4959464;29;20361;-88
2022/04/03 10:56:07;;;;;;;4.00;1.95;;;;;;;17.29;40.33;99653.38;4942016;29;20045;-88
2022/04/03 10:58:47;;;;;;;4.80;1.92;;;;;;;17.31;40.49;99653.31;4941823;29;20086;-89
2022/04/03 11:01:25;;;;;;;5.25;2.20;;;;;;;17.30;40.52;99648.97;4942696;29;20438;-89
2022/04/03 11:04:00;;;;;;;3.58;1.48;;;;;;;17.31;40.21;99648.03;4941995;29;20104;-87
2022/04/03 11:06:31;;;;;;;4.68;2.10;;;;;;;17.32;40.21;99655.03;4942642;29;20421;-89
2022/04/03 11:09:10;;;;;;;4.75;2.00;;;;;;;17.31;40.48;99648.91;4958701;29;20369;-89
2022/04/03 11:11:44;;;;;;;5.38;2.17;;;;;;;17.33;40.23;99648.81;4941885;29;20462;-89
2022/04/03 11:14:12;;;;;;;5.55;1.63;;;;;;;17.33;40.25;99651.47;4941413;29;20038;-88
2022/04/03 11:16:55;;;;;;;4.35;1.80;;;;;;;17.33;40.31;99643.56;4942057;29;20098;-89
2022/04/03 11:19:40;;;;;;;3.60;1.80;;;;;;;17.34;40.35;99642.63;4941731;29;20047;-88
2022/04/03 11:22:09;;;;;;;3.97;1.75;;;;;;;17.34;40.30;99641.78;4941203;29;20350;-88
2022/04/03 11:24:37;;;;;;;3.20;1.38;;;;;;;17.34;40.40;99642.63;4941880;29;20047;-89
2022/04/03 11:27:04;;;;;;;3.83;1.63;;;;;;;17.35;40.36;99638.22;4942073;29;20035;-89
2022/04/03 11:29:30;;;;;;;4.18;1.65;;;;;;;17.36;40.45;99635.53;4942612;29;20026;-89
2022/04/03 11:31:57;;;;;;;4.13;1.95;;;;;;;17.37;40.27;99637.22;4942482;29;20081;-89
2022/04/03 11:34:33;;;;;;;5.30;1.70;;;;;;;17.38;40.36;99638.09;4942148;29;20042;-89